Mechanicsville, Connecticut
Current Conditions -  °F | °C
As of 5:55 AM on Wednesday 22 Oct 2014 (Local Time) from KSFZ Reporting Station
Overcast Overcast  
Wind Chill: 43°   Ceiling: 200
Heat Index: 48°   Visibility: 1.7mi
Dew Point: 43°   Wind: 14mph
Humidity: 82%   Direction: 10°N
Pressure: 29.97"   Gusts: 17mph
Location:  41.9712°N, 71.8342°W
Report Text: KSFZ 220955Z 01012G15KT 1 3/4SM OVC002 09/06 A2997 RMK AO1
Loading
Personal Weather Stations






























Interactive Weather Map
Tropical Storm Tracking
New forecast layout! Learn more

10-Day Weather Forecast

Advertisements
Track Severe Weather on mobile